Time;durP1;ratioP1;P1;durP2;ratioP2;P2;SDS_P1;SDS_P2;PMS_P1;PMS_P2;Temp;Humidity;BMP_temperature;BMP_pressure;BME280_temperature;BME280_humidity;BME280_pressure;Samples;Min_cycle;Max_cycle;Signal;HPM_P1;HPM_P2
2022/08/04 00:01:03;;;;;;;3.50;1.67;;;;;;;21.43;55.86;97134.25;5026048;28;20046;-64
2022/08/04 00:03:51;;;;;;;4.05;1.90;;;;;;;21.38;55.89;97126.19;5026479;28;20045;-64
2022/08/04 00:06:45;;;;;;;3.10;1.87;;;;;;;21.34;55.65;97123.25;5026108;28;20033;-64
2022/08/04 00:09:20;;;;;;;6.25;2.05;;;;;;;21.32;55.65;97128.31;5025062;28;20060;-64
2022/08/04 00:11:49;;;;;;;2.85;1.77;;;;;;;21.36;55.78;97121.00;5026171;28;20406;-64
2022/08/04 00:14:18;;;;;;;3.15;1.65;;;;;;;21.39;55.60;97131.38;5013808;28;20050;-64
2022/08/04 00:16:47;;;;;;;5.22;1.83;;;;;;;21.36;55.48;97118.25;5023145;28;20041;-65
2022/08/04 00:19:28;;;;;;;3.80;1.88;;;;;;;21.35;55.28;97121.31;5024972;28;20045;-64
2022/08/04 00:21:59;;;;;;;4.75;1.73;;;;;;;21.35;55.67;97124.06;5014218;28;20050;-64
2022/08/04 00:24:29;;;;;;;6.20;1.63;;;;;;;21.32;55.83;97120.03;5009364;28;20037;-64
2022/08/04 00:26:57;;;;;;;4.75;1.80;;;;;;;21.32;55.33;97120.03;5016814;28;20045;-64
2022/08/04 00:29:24;;;;;;;3.35;1.83;;;;;;;21.31;55.81;97116.47;5024493;28;20121;-65
2022/08/04 00:31:51;;;;;;;4.85;2.00;;;;;;;21.26;55.71;97118.63;5025360;28;20054;-62
2022/08/04 00:34:27;;;;;;;3.17;1.52;;;;;;;21.22;55.72;97125.91;5025721;28;20061;-64
2022/08/04 00:36:55;;;;;;;4.35;1.80;;;;;;;21.16;55.96;97125.28;5024907;28;20491;-63
2022/08/04 00:39:23;;;;;;;5.78;1.95;;;;;;;21.09;55.99;97128.53;5006056;28;20050;-63
2022/08/04 00:42:11;;;;;;;3.20;1.50;;;;;;;21.07;56.26;97122.53;5017341;28;20045;-63
2022/08/04 00:44:47;;;;;;;4.50;1.92;;;;;;;21.04;56.15;97123.19;5026163;28;20045;-63
2022/08/04 00:47:49;;;;;;;4.32;1.92;;;;;;;21.02;56.43;97125.47;5024984;28;20420;-64
2022/08/04 00:50:28;;;;;;;3.90;1.75;;;;;;;21.02;56.47;97122.72;5009761;28;20045;-63
2022/08/04 00:53:12;;;;;;;2.97;1.85;;;;;;;21.00;56.40;97122.22;5025658;28;20087;-63
2022/08/04 00:56:15;;;;;;;2.95;1.70;;;;;;;21.02;56.01;97120.78;5011916;28;20045;-63
2022/08/04 00:58:51;;;;;;;4.43;1.55;;;;;;;21.11;55.41;97126.25;5024249;28;20045;-63
2022/08/04 01:01:26;;;;;;;3.55;2.00;;;;;;;21.13;55.34;97121.25;5024726;28;20064;-64
2022/08/04 01:04:06;;;;;;;4.20;2.10;;;;;;;21.18;55.27;97114.72;5025583;28;20037;-64
2022/08/04 01:06:59;;;;;;;5.30;2.33;;;;;;;21.21;55.38;97124.28;5025450;28;20735;-64
2022/08/04 01:09:58;;;;;;;3.03;1.70;;;;;;;21.22;54.98;97120.41;5026023;28;20049;-63
2022/08/04 01:12:47;;;;;;;2.47;1.25;;;;;;;21.25;54.75;97120.56;5026053;28;20053;-64
2022/08/04 01:15:53;;;;;;;2.95;1.65;;;;;;;21.25;54.89;97111.47;5027984;28;20045;-64
2022/08/04 01:18:44;;;;;;;5.10;1.83;;;;;;;21.26;55.08;97115.88;5029173;28;20087;-64
2022/08/04 01:21:30;;;;;;;3.00;1.65;;;;;;;21.23;55.26;97120.06;5027927;28;20063;-64
2022/08/04 01:24:11;;;;;;;4.90;1.70;;;;;;;21.25;55.13;97119.72;5028880;28;20048;-64
2022/08/04 01:26:49;;;;;;;6.43;1.88;;;;;;;21.18;55.01;97118.31;5027609;28;20111;-64
2022/08/04 01:29:27;;;;;;;3.15;1.63;;;;;;;21.11;55.67;97122.72;5028024;28;20596;-64
2022/08/04 01:32:19;;;;;;;3.28;1.88;;;;;;;20.99;55.73;97113.16;5014622;28;20037;-63
2022/08/04 01:35:01;;;;;;;3.75;1.75;;;;;;;20.98;55.73;97114.31;5027912;28;20107;-63
2022/08/04 01:37:39;;;;;;;2.50;1.38;;;;;;;20.95;55.63;97114.97;5017428;28;20041;-63
2022/08/04 01:40:07;;;;;;;3.20;1.50;;;;;;;20.94;55.79;97112.53;5015938;28;20041;-63
2022/08/04 01:42:35;;;;;;;5.20;2.63;;;;;;;20.91;56.10;97119.50;5028586;28;20052;-64
2022/08/04 01:45:07;;;;;;;5.03;1.60;;;;;;;20.91;55.99;97114.00;5027383;28;20046;-64
2022/08/04 01:47:37;;;;;;;3.70;1.75;;;;;;;20.92;55.89;97113.66;5027885;28;20033;-64
2022/08/04 01:50:09;;;;;;;4.95;2.22;;;;;;;20.87;56.03;97111.09;5028346;28;20091;-64
2022/08/04 01:52:38;;;;;;;5.85;1.60;;;;;;;20.87;55.99;97104.75;5027918;28;20045;-63
2022/08/04 01:55:10;;;;;;;4.43;1.63;;;;;;;20.92;55.58;97110.91;5028244;28;20118;-63
2022/08/04 01:57:44;;;;;;;4.28;1.52;;;;;;;20.87;55.81;97110.25;5027803;28;20046;-63
2022/08/04 02:00:14;;;;;;;4.80;1.60;;;;;;;20.87;55.97;97113.00;5027678;28;20037;-64
2022/08/04 02:02:40;;;;;;;3.00;1.65;;;;;;;20.91;55.79;97112.06;5028359;28;20041;-64
2022/08/04 02:05:13;;;;;;;3.00;1.55;;;;;;;20.92;55.57;97110.91;5027130;28;20124;-63
2022/08/04 02:08:19;;;;;;;3.78;1.90;;;;;;;21.01;55.25;97112.84;5025932;28;20053;-63
2022/08/04 02:11:15;;;;;;;3.05;1.48;;;;;;;20.96;55.67;97107.53;5027823;28;20037;-64
2022/08/04 02:13:53;;;;;;;5.28;1.80;;;;;;;20.91;55.69;97112.06;5028003;28;20721;-63
2022/08/04 02:16:51;;;;;;;4.85;1.88;;;;;;;20.88;55.73;97109.13;5023158;28;20524;-64
2022/08/04 02:19:26;;;;;;;3.60;1.95;;;;;;;20.83;56.19;97107.34;5009988;28;20061;-63
2022/08/04 02:21:56;;;;;;;5.28;1.80;;;;;;;20.77;56.42;97112.22;5027255;28;20048;-63
2022/08/04 02:24:27;;;;;;;5.03;1.70;;;;;;;20.69;56.62;97104.78;5027738;28;20053;-64
2022/08/04 02:26:55;;;;;;;7.90;3.38;;;;;;;20.59;57.09;97102.34;5027149;28;20041;-64
2022/08/04 02:29:39;;;;;;;3.30;1.83;;;;;;;20.50;57.41;97107.88;5017408;28;20042;-64
2022/08/04 02:32:14;;;;;;;3.05;1.70;;;;;;;20.36;58.16;97105.25;5012785;28;20044;-63
2022/08/04 02:34:53;;;;;;;4.07;1.85;;;;;;;20.22;58.43;97102.66;5027949;28;20452;-64
2022/08/04 02:37:20;;;;;;;3.15;1.80;;;;;;;20.16;58.49;97098.47;5026662;28;20056;-64
2022/08/04 02:39:52;;;;;;;5.53;2.22;;;;;;;20.07;58.65;97096.53;5027204;28;20073;-63
2022/08/04 02:42:20;;;;;;;3.20;1.73;;;;;;;20.13;58.43;97095.22;5026690;28;20052;-64
2022/08/04 02:44:51;;;;;;;3.33;1.63;;;;;;;20.16;58.54;97095.72;5027466;28;20037;-63
2022/08/04 02:47:23;;;;;;;3.08;1.75;;;;;;;20.19;58.35;97095.09;5027158;28;20033;-63
2022/08/04 02:50:11;;;;;;;4.35;1.80;;;;;;;20.24;58.25;97092.97;5027153;28;20069;-63
2022/08/04 02:52:39;;;;;;;4.97;1.90;;;;;;;20.32;57.84;97093.28;5026525;28;20045;-63
2022/08/04 02:55:07;;;;;;;2.65;1.70;;;;;;;20.25;57.86;97089.09;5025791;28;20103;-63
2022/08/04 02:57:35;;;;;;;3.28;1.92;;;;;;;20.29;57.85;97094.75;5027166;28;20038;-63
2022/08/04 03:00:13;;;;;;;3.63;1.50;;;;;;;20.30;57.81;97088.13;5027279;28;20107;-63
2022/08/04 03:03:09;;;;;;;3.53;1.83;;;;;;;20.28;58.16;97087.66;5026064;28;20460;-64
2022/08/04 03:06:02;;;;;;;4.20;1.90;;;;;;;20.24;58.18;97087.47;5010000;28;20045;-63
2022/08/04 03:08:47;;;;;;;3.65;1.70;;;;;;;20.23;58.15;97085.06;5006888;28;20046;-63
2022/08/04 03:11:32;;;;;;;4.60;1.83;;;;;;;20.19;58.55;97087.63;5025371;28;20034;-63
2022/08/04 03:14:27;;;;;;;2.97;1.73;;;;;;;20.14;58.72;97087.78;5026644;28;20045;-63
2022/08/04 03:16:59;;;;;;;3.50;1.80;;;;;;;20.13;58.45;97097.19;5025967;28;20111;-64
2022/08/04 03:19:35;;;;;;;4.45;1.88;;;;;;;20.23;58.36;97090.56;5027019;28;20049;-54
2022/08/04 03:22:20;;;;;;;5.25;1.90;;;;;;;20.24;58.35;97090.22;5026309;28;20103;-54
2022/08/04 03:24:56;;;;;;;3.35;1.77;;;;;;;20.31;58.41;97095.22;5026641;28;20628;-52
2022/08/04 03:27:35;;;;;;;3.17;1.70;;;;;;;20.31;58.21;97091.69;5026084;28;20071;-55
2022/08/04 03:30:07;;;;;;;3.33;1.77;;;;;;;20.32;58.36;97096.03;5014780;28;20037;-53
2022/08/04 03:32:53;;;;;;;4.18;1.88;;;;;;;20.28;58.17;97090.41;5025424;28;20091;-56
2022/08/04 03:35:40;;;;;;;2.70;1.70;;;;;;;20.26;58.69;97090.72;5026126;28;20053;-53
2022/08/04 03:38:16;;;;;;;2.90;1.70;;;;;;;20.10;59.09;97095.88;5016524;28;20084;-56
2022/08/04 03:41:07;;;;;;;2.85;1.63;;;;;;;19.94;60.04;97097.44;5019601;28;20051;-54
2022/08/04 03:43:59;;;;;;;2.90;1.83;;;;;;;19.78;60.62;97103.38;5026462;28;20045;-54
2022/08/04 03:46:45;;;;;;;4.07;1.83;;;;;;;19.74;60.53;97100.47;5022600;28;20072;-53
2022/08/04 03:49:36;;;;;;;3.28;1.77;;;;;;;19.63;61.20;97101.88;5026099;28;20569;-53
2022/08/04 03:55:43;;;;;;;4.97;2.00;;;;;;;19.58;61.85;97094.63;5014110;28;20046;-54
2022/08/04 03:58:21;;;;;;;5.03;1.77;;;;;;;19.66;61.28;97092.19;5017390;28;20053;-51
2022/08/04 04:01:33;;;;;;;2.85;1.83;;;;;;;19.84;60.66;97099.38;5016490;28;20583;-54
2022/08/04 04:04:23;;;;;;;3.67;1.80;;;;;;;20.02;60.03;97091.97;5006868;28;20042;-55
2022/08/04 04:07:03;;;;;;;3.53;1.83;;;;;;;20.10;59.73;97093.13;5020287;28;20111;-52
2022/08/04 04:09:46;;;;;;;3.95;1.80;;;;;;;20.09;60.21;97086.00;5013767;28;20124;-53
2022/08/04 04:12:37;;;;;;;4.70;1.85;;;;;;;20.12;59.95;97085.38;5003180;28;20053;-50
2022/08/04 04:15:34;;;;;;;4.75;1.80;;;;;;;20.08;60.14;97084.38;5017167;28;20037;-49
2022/08/04 04:18:30;;;;;;;2.70;1.80;;;;;;;20.25;59.24;97082.78;5015975;28;20038;-52
2022/08/04 04:21:15;;;;;;;5.15;2.20;;;;;;;20.36;58.73;97095.09;5006781;28;20386;-53
2022/08/04 04:24:06;;;;;;;4.25;2.17;;;;;;;20.44;58.84;97089.88;5010881;28;20053;-56
2022/08/04 04:27:06;;;;;;;5.10;2.55;;;;;;;20.47;58.28;97094.75;5024932;28;20053;-55
2022/08/04 04:29:55;;;;;;;3.75;2.20;;;;;;;20.74;57.60;97088.09;5017820;28;20037;-52
2022/08/04 04:32:47;;;;;;;4.32;1.90;;;;;;;20.97;56.61;97089.88;5004893;28;20049;-56
2022/08/04 04:35:36;;;;;;;6.32;1.98;;;;;;;20.97;56.83;97092.63;5016443;28;20038;-56
2022/08/04 04:38:40;;;;;;;2.92;1.70;;;;;;;21.01;56.40;97093.59;5004678;28;20060;-57
2022/08/04 04:41:28;;;;;;;4.18;1.92;;;;;;;21.11;56.36;97098.72;5019089;28;20088;-55
2022/08/04 04:44:29;;;;;;;4.72;3.00;;;;;;;21.09;56.77;97097.44;5018158;28;20088;-62
2022/08/04 04:47:13;;;;;;;4.35;2.30;;;;;;;21.04;56.57;97101.97;5024118;28;20041;-63
2022/08/04 04:49:45;;;;;;;6.57;2.50;;;;;;;21.10;56.18;97104.56;5021906;28;20515;-64
2022/08/04 04:52:27;;;;;;;5.57;2.22;;;;;;;21.18;56.07;97106.47;5007132;28;20488;-64
2022/08/04 04:55:04;;;;;;;4.03;2.20;;;;;;;21.28;55.79;97105.31;5020024;28;20053;-64
2022/08/04 04:57:34;;;;;;;3.92;2.28;;;;;;;21.28;55.38;97106.13;5016641;28;20041;-64
2022/08/04 05:00:23;;;;;;;3.58;1.92;;;;;;;21.38;55.02;97107.69;5017288;28;20314;-64
2022/08/04 05:03:08;;;;;;;8.27;2.28;;;;;;;21.48;55.17;97111.25;5015060;28;20748;-64
2022/08/04 05:05:56;;;;;;;3.17;1.90;;;;;;;21.56;55.03;97107.66;5015394;28;20049;-64
2022/08/04 05:08:48;;;;;;;3.97;2.00;;;;;;;21.65;54.19;97104.84;5013920;28;20114;-64
2022/08/04 05:11:57;;;;;;;4.72;2.13;;;;;;;21.70;54.10;97110.97;5028279;28;20049;-64
2022/08/04 05:14:34;;;;;;;4.22;1.92;;;;;;;21.69;54.68;97101.09;5028619;28;20423;-64
2022/08/04 05:17:22;;;;;;;3.67;2.03;;;;;;;21.74;54.41;97104.84;5023337;28;20529;-63
2022/08/04 05:20:27;;;;;;;14.32;3.45;;;;;;;21.74;54.96;97113.09;5025861;28;20511;-64
2022/08/04 05:23:12;;;;;;;3.47;2.03;;;;;;;21.79;54.63;97107.38;5008581;28;20536;-64
2022/08/04 05:25:59;;;;;;;4.07;2.00;;;;;;;21.85;54.48;97116.28;5021449;28;20038;-64
2022/08/04 05:28:37;;;;;;;4.55;2.05;;;;;;;21.93;54.12;97113.47;5010000;28;20052;-64
2022/08/04 05:31:19;;;;;;;5.95;2.30;;;;;;;22.06;53.86;97110.78;5028324;28;20117;-63
2022/08/04 05:33:56;;;;;;;5.00;2.35;;;;;;;22.17;53.31;97112.03;5028660;28;20068;-64
2022/08/04 05:36:41;;;;;;;3.60;1.85;;;;;;;22.33;53.15;97111.41;5023730;28;20045;-64
2022/08/04 05:39:15;;;;;;;3.42;1.98;;;;;;;22.47;52.90;97108.38;5028790;28;20120;-64
2022/08/04 05:41:43;;;;;;;3.83;1.95;;;;;;;22.63;52.21;97108.63;5027994;28;20041;-64
2022/08/04 05:44:22;;;;;;;4.95;1.90;;;;;;;22.73;52.27;97110.94;5022526;28;20041;-64
2022/08/04 05:46:54;;;;;;;3.85;1.90;;;;;;;22.87;51.86;97109.84;5027878;28;20042;-64
2022/08/04 05:49:22;;;;;;;5.00;2.13;;;;;;;22.99;51.12;97109.06;5027939;28;20549;-64
2022/08/04 05:51:50;;;;;;;5.18;2.33;;;;;;;23.20;50.29;97109.03;5028037;28;20049;-64
2022/08/04 05:54:19;;;;;;;4.82;1.98;;;;;;;23.43;49.08;97108.63;5027846;28;20084;-64
2022/08/04 05:56:48;;;;;;;4.20;2.10;;;;;;;23.58;49.19;97112.66;5025393;28;20632;-63
2022/08/04 05:59:17;;;;;;;3.85;1.90;;;;;;;23.74;48.31;97111.97;5018771;28;20045;-69
2022/08/04 06:01:46;;;;;;;4.00;1.63;;;;;;;23.87;48.01;97115.53;5021090;28;20666;-65
2022/08/04 06:04:30;;;;;;;6.47;1.90;;;;;;;24.01;47.20;97118.75;5018359;28;20050;-64
2022/08/04 06:06:56;;;;;;;11.05;2.08;;;;;;;24.12;47.36;97115.53;5024807;28;20721;-65
2022/08/04 06:09:23;;;;;;;3.40;1.50;;;;;;;24.26;47.04;97117.94;5012824;28;20095;-65
2022/08/04 06:11:51;;;;;;;3.50;1.50;;;;;;;24.35;46.63;97124.13;5025283;28;20056;-65
2022/08/04 06:14:35;;;;;;;5.22;1.65;;;;;;;24.49;45.84;97122.94;5020089;28;20649;-70
2022/08/04 06:17:05;;;;;;;3.00;1.60;;;;;;;24.60;45.39;97121.31;5022020;28;20614;-64
2022/08/04 06:19:54;;;;;;;4.50;1.77;;;;;;;24.70;45.62;97116.41;5020512;28;20076;-64
2022/08/04 06:22:32;;;;;;;5.15;1.75;;;;;;;24.84;45.38;97116.03;5025385;28;20124;-64
2022/08/04 06:25:01;;;;;;;4.78;1.80;;;;;;;24.96;44.54;97118.75;5014006;28;20681;-64
2022/08/04 06:27:30;;;;;;;4.78;1.70;;;;;;;25.16;44.36;97118.88;5019021;28;20041;-64
2022/08/04 06:29:59;;;;;;;3.08;1.45;;;;;;;25.33;43.28;97124.06;5015353;28;20041;-64
2022/08/04 06:32:35;;;;;;;4.38;1.90;;;;;;;25.43;42.83;97117.19;5020620;28;20041;-65
2022/08/04 06:35:08;;;;;;;;;;;;;;;25.54;43.00;97125.78;5026094;28;20179;-64
2022/08/04 06:37:36;;;;;;;2.97;1.55;;;;;;;25.72;42.46;97128.22;5009387;28;19921;-64
2022/08/04 06:40:11;;;;;;;2.97;1.50;;;;;;;25.85;42.01;97128.94;5022372;28;20038;-64
2022/08/04 06:42:59;;;;;;;2.97;1.77;;;;;;;25.94;41.84;97128.75;5023393;28;20614;-64
2022/08/04 06:45:26;;;;;;;4.25;1.60;;;;;;;26.03;41.55;97129.38;5020758;28;20448;-70
2022/08/04 06:47:54;;;;;;;3.22;1.35;;;;;;;26.11;41.51;97141.41;5017770;28;20041;-70
2022/08/04 06:50:21;;;;;;;3.03;1.80;;;;;;;26.23;41.54;97132.97;5021151;28;20046;-70
2022/08/04 06:53:08;;;;;;;4.55;1.55;;;;;;;26.38;40.98;97138.88;5023612;28;20037;-72
2022/08/04 06:55:36;;;;;;;3.47;1.85;;;;;;;26.46;40.36;97139.84;5015778;28;20045;-64
2022/08/04 06:58:03;;;;;;;4.95;1.75;;;;;;;26.55;39.92;97142.41;5016721;28;20041;-66
2022/08/04 07:00:31;;;;;;;5.32;1.70;;;;;;;26.65;40.05;97141.00;5015533;28;20092;-65
2022/08/04 07:02:58;;;;;;;3.40;1.60;;;;;;;26.66;40.18;97125.97;5020510;28;20049;-64
2022/08/04 07:05:25;;;;;;;3.83;1.90;;;;;;;26.71;40.19;97142.31;5016654;28;20051;-64
2022/08/04 07:07:52;;;;;;;2.85;1.40;;;;;;;26.76;40.44;97136.50;5022627;28;20030;-67
2022/08/04 07:10:27;;;;;;;4.18;1.52;;;;;;;26.80;39.89;97140.16;5015616;28;20083;-64
2022/08/04 07:12:56;;;;;;;7.03;1.70;;;;;;;26.92;39.50;97132.81;5013407;28;20076;-63
2022/08/04 07:15:23;;;;;;;4.18;1.77;;;;;;;27.07;39.08;97137.53;5017329;28;20049;-63
2022/08/04 07:17:51;;;;;;;3.03;1.63;;;;;;;27.17;38.97;97138.91;5023427;28;20047;-72
2022/08/04 07:20:19;;;;;;;4.05;1.60;;;;;;;27.27;38.53;97123.59;5011009;28;20442;-65
2022/08/04 07:23:04;;;;;;;2.78;1.60;;;;;;;27.35;38.52;97128.09;5024225;28;20049;-64
2022/08/04 07:25:35;;;;;;;3.97;1.47;;;;;;;27.49;38.07;97132.31;5022281;28;20049;-69
2022/08/04 07:28:24;;;;;;;2.93;1.43;;;;;;;27.53;37.42;97127.63;5009649;28;20050;-66
2022/08/04 07:30:52;;;;;;;5.20;1.45;;;;;;;27.68;37.30;97123.13;5013451;28;20763;-66
2022/08/04 07:33:20;;;;;;;2.80;1.35;;;;;;;27.77;37.17;97123.66;5020845;28;20045;-66
2022/08/04 07:35:51;;;;;;;4.55;1.90;;;;;;;27.92;37.55;97121.91;5018685;28;20038;-66
2022/08/04 07:38:35;;;;;;;2.78;1.42;;;;;;;28.04;37.08;97122.84;5018837;28;20048;-66
2022/08/04 07:41:11;;;;;;;5.47;1.70;;;;;;;28.08;36.70;97120.94;5009323;28;20037;-66
2022/08/04 07:43:58;;;;;;;2.45;1.50;;;;;;;28.23;36.47;97124.72;5009741;28;20131;-64
2022/08/04 07:46:25;;;;;;;3.92;1.40;;;;;;;28.35;36.31;97118.19;5020068;28;20055;-64
2022/08/04 07:48:59;;;;;;;3.67;1.42;;;;;;;28.51;36.79;97117.97;5020532;28;20048;-65
2022/08/04 07:51:27;;;;;;;2.92;1.55;;;;;;;28.48;36.50;97115.94;5018451;28;20048;-64
2022/08/04 07:53:55;;;;;;;3.60;1.52;;;;;;;28.53;36.88;97121.16;5017554;28;20694;-64
2022/08/04 07:56:24;;;;;;;3.70;1.60;;;;;;;28.62;36.48;97122.88;5015654;28;20053;-65
2022/08/04 07:58:51;;;;;;;3.13;1.35;;;;;;;28.69;35.99;97120.19;5020199;28;20048;-63
2022/08/04 08:01:22;;;;;;;2.63;1.50;;;;;;;28.64;36.28;97126.09;5014239;28;20107;-63
2022/08/04 08:03:49;;;;;;;4.60;1.63;;;;;;;28.82;36.28;97124.31;5017672;28;20056;-69
2022/08/04 08:06:16;;;;;;;4.53;1.70;;;;;;;28.98;35.57;97123.34;5010932;28;20095;-70
2022/08/04 08:09:00;;;;;;;3.58;1.67;;;;;;;28.92;35.49;97120.09;5012575;28;20407;-70
2022/08/04 08:11:45;;;;;;;2.95;1.58;;;;;;;28.99;35.94;97121.34;5022271;28;20843;-71
2022/08/04 08:14:33;;;;;;;3.00;1.50;;;;;;;29.19;34.97;97125.53;5017055;28;20039;-70
2022/08/04 08:17:02;;;;;;;3.20;1.45;;;;;;;29.16;34.84;97114.34;5023790;28;20049;-63
2022/08/04 08:19:29;;;;;;;5.68;1.98;;;;;;;29.23;35.09;97119.19;5018075;28;20033;-65
2022/08/04 08:21:57;;;;;;;5.10;1.67;;;;;;;29.26;35.15;97110.88;5014246;28;20501;-71
2022/08/04 08:24:27;;;;;;;2.67;1.70;;;;;;;29.32;34.37;97116.91;5021174;28;20065;-73
2022/08/04 08:26:55;;;;;;;2.95;1.70;;;;;;;29.29;33.73;97109.31;5019222;28;20111;-73
2022/08/04 08:29:24;;;;;;;2.83;1.60;;;;;;;29.28;33.47;97107.69;5007217;28;20166;-70
2022/08/04 08:31:51;;;;;;;3.72;1.75;;;;;;;29.29;34.06;97112.91;5008085;28;20042;-68
2022/08/04 08:34:24;;;;;;;2.03;1.40;;;;;;;29.29;33.81;97109.31;5023569;28;20041;-72
2022/08/04 08:36:56;;;;;;;3.93;1.87;;;;;;;29.56;32.92;97107.19;5018087;28;20081;-71
2022/08/04 08:39:32;;;;;;;2.88;1.33;;;;;;;29.59;33.27;97114.78;5011206;28;20038;-71
2022/08/04 08:42:04;;;;;;;2.63;1.38;;;;;;;29.57;33.72;97108.00;5015294;28;20045;-70
2022/08/04 08:45:05;;;;;;;4.68;1.75;;;;;;;29.70;33.85;97114.88;5008737;28;20061;-73
2022/08/04 08:47:46;;;;;;;4.30;2.20;;;;;;;30.05;32.75;97106.34;5018017;28;20125;-70
2022/08/04 08:50:43;;;;;;;6.03;1.90;;;;;;;30.20;31.92;97113.66;5025340;28;20125;-70
2022/08/04 08:53:48;;;;;;;3.03;1.63;;;;;;;30.07;32.65;97110.34;5024244;28;20052;-70
2022/08/04 08:56:45;;;;;;;3.67;1.80;;;;;;;29.98;32.43;97113.50;5024932;28;20041;-62
2022/08/04 08:59:49;;;;;;;2.90;1.73;;;;;;;29.90;32.61;97114.63;5024797;28;20366;-68
2022/08/04 09:02:40;;;;;;;3.75;1.67;;;;;;;30.04;32.89;97110.34;5020436;28;20547;-68
2022/08/04 09:05:27;;;;;;;5.10;1.58;;;;;;;30.11;32.32;97110.38;5018524;28;20049;-68
2022/08/04 09:08:28;;;;;;;3.28;1.50;;;;;;;30.36;32.38;97123.69;5009464;28;20061;-69
2022/08/04 09:11:07;;;;;;;5.40;3.25;;;;;;;30.53;31.81;97113.81;5008211;28;20050;-69
2022/08/04 09:13:47;;;;;;;4.63;1.67;;;;;;;30.58;31.93;97102.25;5023525;28;20056;-70
2022/08/04 09:16:20;;;;;;;3.67;1.83;;;;;;;30.67;31.35;97110.28;5020358;28;20625;-71
2022/08/04 09:19:15;;;;;;;3.22;2.05;;;;;;;30.78;31.03;97112.34;5010862;28;20069;-68
2022/08/04 09:22:15;;;;;;;3.85;1.80;;;;;;;30.86;31.05;97117.56;5014013;28;20131;-68
2022/08/04 09:25:10;;;;;;;2.25;1.48;;;;;;;31.27;30.78;97112.88;5010906;28;20150;-68
2022/08/04 09:27:51;;;;;;;4.25;1.67;;;;;;;31.34;30.45;97112.91;5033341;28;20034;-63
2022/08/04 09:30:21;;;;;;;3.55;1.83;;;;;;;31.34;30.44;97112.91;5022492;28;20744;-68
2022/08/04 09:33:01;;;;;;;4.60;1.40;;;;;;;31.38;30.27;97115.69;5016674;28;20037;-70
2022/08/04 09:35:46;;;;;;;3.93;1.70;;;;;;;31.30;29.72;97106.47;5041583;28;20136;-71
2022/08/04 09:38:34;;;;;;;3.55;1.60;;;;;;;31.22;30.23;97114.06;5025987;28;20319;-68
2022/08/04 09:41:34;;;;;;;3.05;1.60;;;;;;;31.32;30.29;97103.31;5016504;28;20045;-70
2022/08/04 09:45:03;;;;;;;6.18;1.67;;;;;;;31.95;29.55;97097.34;5002550;28;20068;-69
2022/08/04 09:47:57;;;;;;;3.92;1.55;;;;;;;32.00;29.58;97099.72;5019992;28;20057;-64
2022/08/04 09:50:46;;;;;;;3.20;1.50;;;;;;;31.99;29.26;97097.34;5024343;28;20041;-67
2022/08/04 09:53:47;;;;;;;4.15;2.10;;;;;;;31.81;29.84;97109.31;5019238;28;20124;-63
2022/08/04 09:56:41;;;;;;;3.58;1.52;;;;;;;31.67;29.89;97101.72;5013210;28;20042;-62
2022/08/04 09:59:21;;;;;;;6.07;1.75;;;;;;;31.77;30.15;97105.72;5021162;28;20034;-68
2022/08/04 10:01:58;;;;;;;3.10;1.77;;;;;;;31.78;29.40;97102.53;5005365;28;20057;-69
2022/08/04 10:04:30;;;;;;;6.30;1.83;;;;;;;31.84;29.39;97105.72;4995657;28;20057;-69
2022/08/04 10:07:23;;;;;;;3.35;1.60;;;;;;;31.80;29.62;97099.31;5003576;28;20048;-70
2022/08/04 10:10:26;;;;;;;5.50;1.90;;;;;;;31.84;29.24;97102.13;5004516;28;20568;-70
2022/08/04 10:13:09;;;;;;;4.18;1.35;;;;;;;31.96;29.66;97084.13;5005231;28;20325;-67
2022/08/04 10:15:50;;;;;;;4.75;1.42;;;;;;;32.12;28.72;97092.91;5007225;28;20099;-62
2022/08/04 10:18:41;;;;;;;4.63;1.95;;;;;;;32.18;28.48;97093.28;4997655;28;20703;-66
2022/08/04 10:21:17;;;;;;;4.50;1.60;;;;;;;32.28;28.71;97086.06;4993378;28;20054;-64
2022/08/04 10:23:57;;;;;;;9.52;1.73;;;;;;;32.43;28.85;97090.41;5005697;28;20054;-66
2022/08/04 10:26:44;;;;;;;3.78;1.77;;;;;;;32.46;27.98;97082.44;4999387;28;20116;-66
2022/08/04 10:29:21;;;;;;;4.85;1.63;;;;;;;32.54;28.24;97079.19;5006146;28;20034;-65
2022/08/04 10:32:16;;;;;;;3.30;1.70;;;;;;;32.57;27.80;97081.19;4991069;28;20692;-66
2022/08/04 10:34:55;;;;;;;3.38;1.67;;;;;;;32.52;27.67;97075.19;4987275;28;20053;-66
2022/08/04 10:37:27;;;;;;;4.22;1.65;;;;;;;32.46;28.43;97091.63;4999853;28;20092;-66
2022/08/04 10:40:37;;;;;;;4.75;1.67;;;;;;;32.22;27.90;97088.47;4996940;28;20112;-66
2022/08/04 10:43:27;;;;;;;3.63;1.37;;;;;;;32.03;28.66;97087.72;4991453;28;20069;-66
2022/08/04 10:45:54;;;;;;;;;;;;;;;32.07;28.61;97082.13;5002350;28;20517;-66
2022/08/04 10:48:38;;;;;;;3.53;1.58;;;;;;;32.10;28.05;97075.72;4990591;28;19968;-65
2022/08/04 10:51:24;;;;;;;4.90;1.58;;;;;;;32.16;28.55;97076.09;5003229;28;20073;-67
2022/08/04 10:54:19;;;;;;;5.45;1.50;;;;;;;32.20;27.91;97070.50;5003555;28;20045;-65
2022/08/04 10:56:52;;;;;;;3.47;1.65;;;;;;;32.39;28.76;97077.63;5003964;28;20805;-67
2022/08/04 10:59:39;;;;;;;4.60;1.58;;;;;;;32.49;27.92;97082.41;5000934;28;20122;-67
2022/08/04 11:02:34;;;;;;;3.45;1.83;;;;;;;32.54;27.99;97075.59;4996025;28;20042;-66
2022/08/04 11:05:26;;;;;;;5.13;1.67;;;;;;;32.78;27.49;97081.47;4994285;28;20421;-66
2022/08/04 11:07:59;;;;;;;4.28;1.83;;;;;;;32.82;27.91;97077.47;5004664;28;20046;-66
2022/08/04 11:10:31;;;;;;;3.65;1.73;;;;;;;32.93;27.53;97079.38;5003337;28;20136;-66
2022/08/04 11:13:04;;;;;;;3.10;1.40;;;;;;;32.91;27.47;97079.03;4994347;28;20532;-66
2022/08/04 11:15:39;;;;;;;3.10;1.70;;;;;;;32.99;27.58;97076.97;4998704;28;20057;-66
2022/08/04 11:18:13;;;;;;;3.58;1.42;;;;;;;33.01;27.02;97078.19;5004479;28;20049;-69
2022/08/04 11:20:51;;;;;;;3.20;1.60;;;;;;;33.00;27.23;97070.97;5004996;28;20042;-67
2022/08/04 11:23:25;;;;;;;3.10;1.50;;;;;;;33.04;27.20;97077.34;5005063;28;20135;-72
2022/08/04 11:26:02;;;;;;;2.80;1.60;;;;;;;33.06;26.88;97079.75;4994240;28;20050;-67
2022/08/04 11:28:49;;;;;;;3.60;1.45;;;;;;;32.95;27.26;97077.00;4999929;28;20045;-67
2022/08/04 11:31:38;;;;;;;2.70;1.60;;;;;;;33.07;26.74;97076.56;5000881;28;20048;-63
2022/08/04 11:34:18;;;;;;;2.80;1.63;;;;;;;33.29;26.86;97076.41;4987805;28;20054;-67
2022/08/04 11:37:03;;;;;;;7.47;1.70;;;;;;;33.32;26.52;97080.38;5000219;28;21628;-69
2022/08/04 11:39:50;;;;;;;3.33;1.65;;;;;;;33.42;26.48;97078.72;4992349;28;20038;-67
2022/08/04 11:42:27;;;;;;;3.50;1.40;;;;;;;33.31;26.67;97076.00;5002941;28;20096;-68
2022/08/04 11:45:06;;;;;;;5.80;1.50;;;;;;;33.26;26.43;97071.59;4993482;28;20042;-68
2022/08/04 11:47:42;;;;;;;4.87;1.53;;;;;;;33.38;26.32;97069.53;4995325;28;20049;-67
2022/08/04 11:50:31;;;;;;;5.72;1.75;;;;;;;33.60;26.29;97070.16;5002784;28;20297;-69
2022/08/04 11:53:00;;;;;;;5.05;1.58;;;;;;;33.77;25.86;97068.41;4994916;28;20105;-69
2022/08/04 11:55:27;;;;;;;3.45;1.38;;;;;;;33.95;26.20;97071.03;4998884;28;20580;-64
2022/08/04 11:57:55;;;;;;;5.25;1.60;;;;;;;33.84;25.98;97073.16;4993906;28;20152;-66
2022/08/04 12:00:26;;;;;;;3.00;1.50;;;;;;;33.95;25.75;97068.22;5004022;28;20050;-64
2022/08/04 12:03:18;;;;;;;2.80;1.70;;;;;;;33.92;25.94;97068.25;5003531;28;20052;-65
2022/08/04 12:06:08;;;;;;;3.63;1.50;;;;;;;34.04;25.10;97070.53;4988384;28;20501;-66
2022/08/04 12:08:50;;;;;;;2.33;1.50;;;;;;;33.99;25.44;97056.97;4997467;28;20050;-67
2022/08/04 12:11:55;;;;;;;5.22;1.50;;;;;;;34.25;25.46;97060.31;4990200;28;20046;-64
2022/08/04 12:14:25;;;;;;;5.10;1.83;;;;;;;34.77;25.25;97058.47;5002633;28;20049;-63
2022/08/04 12:17:00;;;;;;;3.50;1.57;;;;;;;34.83;24.57;97065.25;4990509;28;20045;-64
2022/08/04 12:19:33;;;;;;;2.85;1.45;;;;;;;34.92;24.53;97069.56;4989009;28;22031;-65
2022/08/04 12:22:24;;;;;;;3.38;1.63;;;;;;;34.68;24.68;97058.22;4996779;28;20038;-65
2022/08/04 12:25:05;;;;;;;2.90;1.40;;;;;;;34.61;24.82;97062.72;5002649;28;20053;-65
2022/08/04 12:27:38;;;;;;;4.50;1.80;;;;;;;34.73;24.65;97061.34;5000735;28;20054;-66
2022/08/04 12:30:06;;;;;;;2.65;1.45;;;;;;;34.72;24.73;97058.97;4991659;28;20046;-67
2022/08/04 12:33:13;;;;;;;2.67;1.67;;;;;;;35.02;24.47;97054.53;5000721;28;20108;-65
2022/08/04 12:36:03;;;;;;;3.42;1.45;;;;;;;35.08;24.14;97050.00;4999147;28;20635;-64
2022/08/04 12:38:47;;;;;;;2.85;1.50;;;;;;;35.26;23.90;97046.16;4992278;28;20579;-66